Time;durP1;ratioP1;P1;durP2;ratioP2;P2;SDS_P1;SDS_P2;PMS_P1;PMS_P2;Temp;Humidity;BMP_temperature;BMP_pressure;BME280_temperature;BME280_humidity;BME280_pressure;Samples;Min_cycle;Max_cycle;Signal;HPM_P1;HPM_P2
2023/08/28 00:01:57;;;;;;;4.25;1.63;;;14.00;99.90;;;;;;4993031;28;20605;-68
2023/08/28 00:04:24;;;;;;;4.40;1.63;;;14.00;99.90;;;;;;4962308;28;20553;-68
2023/08/28 00:06:52;;;;;;;2.00;1.58;;;14.10;99.90;;;;;;4983215;28;20211;-68
2023/08/28 00:09:19;;;;;;;3.15;1.50;;;14.10;99.90;;;;;;5001048;28;20238;-68
2023/08/28 00:11:45;;;;;;;6.35;1.80;;;14.10;99.90;;;;;;4983353;28;20673;-68
2023/08/28 00:14:12;;;;;;;4.47;1.58;;;14.10;99.90;;;;;;5001382;28;20817;-68
2023/08/28 00:16:39;;;;;;;7.63;1.60;;;14.10;99.90;;;;;;4992966;28;20437;-68
2023/08/28 00:19:08;;;;;;;7.03;1.75;;;14.10;99.90;;;;;;4948860;28;20217;-68
2023/08/28 00:21:35;;;;;;;5.15;1.60;;;14.10;99.90;;;;;;5000576;28;20680;-68
2023/08/28 00:24:01;;;;;;;3.22;1.38;;;14.00;99.90;;;;;;4981044;28;21430;-68
2023/08/28 00:26:29;;;;;;;2.65;1.65;;;14.00;99.90;;;;;;4997012;28;20336;-68
2023/08/28 00:28:56;;;;;;;3.30;1.40;;;14.00;99.90;;;;;;4986508;28;20413;-68
2023/08/28 00:31:22;;;;;;;1.73;1.40;;;14.00;99.90;;;;;;4998462;28;20205;-68
2023/08/28 00:33:49;;;;;;;3.95;1.60;;;13.90;99.90;;;;;;4955221;28;20421;-68
2023/08/28 00:36:17;;;;;;;1.55;1.40;;;13.90;99.90;;;;;;4999176;28;20203;-68
2023/08/28 00:38:43;;;;;;;3.22;1.70;;;14.00;99.90;;;;;;4992091;28;20391;-68
2023/08/28 00:41:11;;;;;;;3.63;1.70;;;14.00;99.90;;;;;;4995225;28;20693;-68
2023/08/28 00:43:37;;;;;;;2.33;1.58;;;14.00;99.90;;;;;;4994237;28;20213;-68
2023/08/28 00:46:05;;;;;;;2.78;1.60;;;14.00;99.90;;;;;;4998719;28;20674;-68
2023/08/28 00:48:33;;;;;;;2.10;1.77;;;13.90;99.90;;;;;;4982098;28;20210;-68
2023/08/28 00:51:01;;;;;;;1.60;1.50;;;14.00;99.90;;;;;;4984830;28;20210;-68
2023/08/28 00:53:29;;;;;;;5.40;1.50;;;14.00;99.90;;;;;;5004265;28;20225;-68
2023/08/28 00:55:56;;;;;;;4.38;1.90;;;13.90;99.90;;;;;;4993824;28;20396;-68
2023/08/28 00:58:23;;;;;;;3.13;1.85;;;13.90;99.90;;;;;;4993367;28;20213;-68
2023/08/28 01:00:50;;;;;;;1.85;1.52;;;13.90;99.90;;;;;;4999579;28;20217;-68
2023/08/28 01:03:17;;;;;;;2.63;1.65;;;13.90;99.90;;;;;;4998301;28;20213;-68
2023/08/28 01:05:50;;;;;;;3.67;1.77;;;13.90;99.90;;;;;;4959476;28;20222;-68
2023/08/28 01:08:28;;;;;;;2.78;1.63;;;13.90;99.90;;;;;;4997684;28;20234;-68
2023/08/28 01:11:04;;;;;;;4.32;1.90;;;13.90;99.90;;;;;;4985905;28;20450;-68
2023/08/28 01:13:36;;;;;;;2.05;1.65;;;13.90;99.90;;;;;;4991041;28;20211;-68
2023/08/28 01:16:04;;;;;;;2.35;1.70;;;13.80;99.90;;;;;;4985818;28;20217;-68
2023/08/28 01:18:32;;;;;;;2.47;1.83;;;13.90;99.90;;;;;;4986498;28;20222;-68
2023/08/28 01:20:59;;;;;;;3.13;1.48;;;13.80;99.90;;;;;;4955854;28;20395;-68
2023/08/28 01:23:32;;;;;;;4.55;1.65;;;13.70;99.90;;;;;;4993655;28;20778;-68
2023/08/28 01:26:00;;;;;;;1.80;1.70;;;14.50;99.90;;;;;;4976366;28;21110;-68
2023/08/28 01:28:28;;;;;;;6.47;2.00;;;13.80;99.90;;;;;;4993614;28;20252;-68
2023/08/28 01:30:55;;;;;;;3.58;2.00;;;13.80;99.90;;;;;;4979489;28;20329;-68
2023/08/28 01:33:22;;;;;;;2.67;2.10;;;13.90;99.90;;;;;;4992634;28;20217;-68
2023/08/28 01:35:55;;;;;;;2.30;1.88;;;14.00;99.90;;;;;;4942276;28;20241;-68
2023/08/28 01:38:30;;;;;;;5.35;1.67;;;13.80;99.90;;;;;;4997327;28;20767;-68
2023/08/28 01:41:03;;;;;;;2.17;1.98;;;13.90;99.90;;;;;;4988087;28;20637;-68
2023/08/28 01:43:35;;;;;;;4.40;1.85;;;13.90;99.90;;;;;;4995252;28;20954;-68
2023/08/28 01:46:03;;;;;;;2.25;2.05;;;13.80;99.90;;;;;;4983025;28;20226;-68
2023/08/28 01:48:29;;;;;;;2.67;2.03;;;13.80;99.90;;;;;;4995097;28;20336;-68
2023/08/28 01:50:56;;;;;;;3.60;1.90;;;13.70;99.90;;;;;;4946398;28;20195;-68
2023/08/28 01:53:23;;;;;;;6.70;1.90;;;13.80;99.90;;;;;;5002083;28;20202;-68
2023/08/28 01:56:22;;;;;;;2.42;1.90;;;13.70;99.90;;;;;;4980443;28;20207;-68
2023/08/28 01:58:52;;;;;;;3.88;2.00;;;13.70;99.90;;;;;;4982409;28;20194;-68
2023/08/28 02:01:19;;;;;;;5.88;2.25;;;13.80;99.90;;;;;;4981788;28;20566;-68
2023/08/28 02:03:47;;;;;;;4.80;1.85;;;13.70;99.90;;;;;;4996027;28;20206;-68
2023/08/28 02:06:13;;;;;;;4.18;1.92;;;13.60;99.90;;;;;;4955486;28;22270;-68
2023/08/28 02:08:40;;;;;;;4.55;1.80;;;13.70;99.90;;;;;;4990688;28;20233;-68
2023/08/28 02:11:07;;;;;;;8.20;1.92;;;13.70;99.90;;;;;;4973817;28;20522;-68
2023/08/28 02:13:34;;;;;;;3.97;1.98;;;13.70;99.90;;;;;;4986451;28;20199;-68
2023/08/28 02:16:03;;;;;;;2.42;1.83;;;13.60;99.90;;;;;;4976371;28;20681;-68
2023/08/28 02:18:30;;;;;;;5.68;2.03;;;13.60;99.90;;;;;;4995460;28;20206;-68
2023/08/28 02:20:57;;;;;;;5.47;2.05;;;13.70;99.90;;;;;;4991042;28;20246;-68
2023/08/28 02:23:25;;;;;;;3.47;1.90;;;13.60;99.90;;;;;;4959789;28;20684;-68
2023/08/28 02:25:52;;;;;;;3.47;2.30;;;13.70;99.90;;;;;;4987583;28;21834;-68
2023/08/28 02:28:19;;;;;;;2.95;1.98;;;13.60;99.90;;;;;;4988970;28;20213;-68
2023/08/28 02:30:46;;;;;;;3.63;2.13;;;13.60;99.90;;;;;;4976372;28;20211;-68
2023/08/28 02:33:14;;;;;;;2.75;1.90;;;13.60;99.90;;;;;;4984349;28;20233;-68
2023/08/28 02:35:41;;;;;;;4.00;1.85;;;13.60;99.90;;;;;;4989029;28;20202;-68
2023/08/28 02:38:08;;;;;;;2.65;1.80;;;13.60;99.90;;;;;;4954813;28;21939;-68
2023/08/28 02:40:36;;;;;;;3.53;1.85;;;13.70;99.90;;;;;;4992410;28;20293;-68
2023/08/28 02:43:05;;;;;;;3.88;2.10;;;13.70;99.90;;;;;;4982778;28;20621;-68
2023/08/28 02:45:33;;;;;;;4.13;2.42;;;13.70;99.90;;;;;;4982524;28;20571;-68
2023/08/28 02:48:00;;;;;;;5.15;2.70;;;13.60;99.90;;;;;;4980168;28;20206;-68
2023/08/28 02:50:28;;;;;;;2.55;1.85;;;13.60;99.90;;;;;;4996065;28;20206;-69
2023/08/28 02:52:55;;;;;;;3.00;2.28;;;13.60;99.90;;;;;;4988133;28;20205;-68
2023/08/28 02:55:22;;;;;;;2.47;2.00;;;13.60;99.90;;;;;;4962885;28;20213;-68
2023/08/28 02:57:49;;;;;;;3.42;2.03;;;13.50;99.90;;;;;;4993488;28;20739;-68
2023/08/28 03:00:18;;;;;;;2.28;2.03;;;13.60;99.90;;;;;;4981152;28;20374;-68
2023/08/28 03:02:45;;;;;;;5.78;2.25;;;13.50;99.90;;;;;;4998631;28;20199;-68
2023/08/28 03:05:12;;;;;;;6.70;2.20;;;13.50;99.90;;;;;;4990477;28;20518;-68
2023/08/28 03:07:40;;;;;;;2.83;1.80;;;13.50;99.90;;;;;;4999405;28;20201;-68
2023/08/28 03:10:08;;;;;;;5.00;2.55;;;13.50;99.90;;;;;;4963474;28;21941;-68
2023/08/28 03:12:35;;;;;;;5.18;2.10;;;13.50;99.90;;;;;;5003947;28;22707;-68
2023/08/28 03:15:02;;;;;;;3.42;2.58;;;13.50;99.90;;;;;;4971934;28;20392;-68
2023/08/28 03:17:29;;;;;;;5.10;4.05;;;13.50;99.90;;;;;;5005228;28;20214;-68
2023/08/28 03:19:56;;;;;;;4.32;3.65;;;13.50;99.90;;;;;;4988784;28;20213;-68
2023/08/28 03:22:22;;;;;;;5.50;4.32;;;13.50;99.90;;;;;;4990453;28;20203;-68
2023/08/28 03:24:52;;;;;;;5.63;3.80;;;13.70;99.90;;;;;;4941189;28;20424;-68
2023/08/28 03:27:19;;;;;;;6.28;4.50;;;13.40;99.90;;;;;;4984064;28;20225;-68
2023/08/28 03:29:46;;;;;;;7.68;3.90;;;13.30;99.90;;;;;;4977407;28;20210;-68
2023/08/28 03:32:13;;;;;;;6.80;4.18;;;14.40;99.90;;;;;;4991965;28;20245;-68
2023/08/28 03:34:40;;;;;;;7.93;3.30;;;13.30;99.90;;;;;;4984300;28;20665;-68
2023/08/28 03:37:06;;;;;;;6.22;3.13;;;13.40;99.90;;;;;;4985581;28;20214;-68
2023/08/28 03:39:33;;;;;;;5.78;3.17;;;13.30;99.90;;;;;;4995580;28;20207;-68
2023/08/28 03:42:02;;;;;;;4.32;3.10;;;13.30;99.90;;;;;;4958204;28;20225;-68
2023/08/28 03:44:31;;;;;;;2.97;2.63;;;13.30;99.90;;;;;;4970607;28;20620;-68
2023/08/28 03:46:58;;;;;;;4.07;3.05;;;13.30;99.90;;;;;;4985307;28;20237;-68
2023/08/28 03:49:27;;;;;;;5.50;3.20;;;14.10;99.90;;;;;;4983779;28;20249;-67
2023/08/28 03:51:54;;;;;;;5.22;3.33;;;13.30;99.90;;;;;;4987500;28;20972;-68
2023/08/28 03:54:21;;;;;;;3.38;2.63;;;13.30;99.90;;;;;;4982726;28;20210;-68
2023/08/28 03:56:48;;;;;;;3.55;2.80;;;13.30;99.90;;;;;;4958590;28;20219;-68
2023/08/28 03:59:16;;;;;;;3.30;3.00;;;13.20;99.90;;;;;;4981503;28;20213;-68
2023/08/28 04:01:43;;;;;;;3.65;3.20;;;13.20;99.90;;;;;;4976916;28;20223;-68
2023/08/28 04:04:10;;;;;;;6.88;3.47;;;13.20;99.90;;;;;;4988884;28;20219;-68
2023/08/28 04:06:36;;;;;;;5.35;2.95;;;12.90;99.90;;;;;;4969024;28;20233;-68
2023/08/28 04:09:03;;;;;;;4.35;3.10;;;13.20;99.90;;;;;;4997173;28;20237;-68
2023/08/28 04:11:30;;;;;;;9.02;3.78;;;13.20;99.90;;;;;;4939155;28;20416;-68
2023/08/28 04:13:57;;;;;;;6.65;3.28;;;13.20;99.90;;;;;;4993595;28;20676;-68
2023/08/28 04:16:25;;;;;;;4.70;2.70;;;13.20;99.90;;;;;;4987210;28;20201;-68
2023/08/28 04:18:52;;;;;;;3.50;2.97;;;13.20;99.90;;;;;;4997267;28;20203;-68
2023/08/28 04:21:19;;;;;;;5.65;3.00;;;13.30;99.90;;;;;;4995661;28;20199;-68
2023/08/28 04:23:46;;;;;;;5.43;3.00;;;13.20;99.90;;;;;;4999584;28;20207;-68
2023/08/28 04:26:12;;;;;;;5.95;2.75;;;13.20;99.90;;;;;;4989328;28;20230;-68
2023/08/28 04:28:39;;;;;;;5.55;3.28;;;13.00;99.90;;;;;;4966874;28;20995;-68
2023/08/28 04:31:09;;;;;;;3.33;3.03;;;13.20;99.90;;;;;;4989853;28;20206;-68
2023/08/28 04:33:37;;;;;;;5.53;2.60;;;13.20;99.90;;;;;;5004714;28;20202;-68
2023/08/28 04:36:04;;;;;;;3.42;2.97;;;13.20;99.90;;;;;;4998651;28;20226;-68
2023/08/28 04:38:31;;;;;;;5.00;3.25;;;13.40;99.90;;;;;;4987186;28;20194;-68
2023/08/28 04:40:58;;;;;;;6.55;3.80;;;13.20;99.90;;;;;;5005857;28;20206;-68
2023/08/28 04:43:25;;;;;;;6.20;3.92;;;13.20;99.90;;;;;;4942447;28;20805;-68
2023/08/28 04:45:52;;;;;;;7.45;4.35;;;13.30;99.90;;;;;;4976459;28;20586;-67
2023/08/28 04:48:19;;;;;;;7.43;4.90;;;13.20;99.90;;;;;;4982059;28;20258;-68
2023/08/28 04:50:47;;;;;;;6.07;4.80;;;12.80;99.90;;;;;;4973037;28;20234;-68
2023/08/28 04:53:14;;;;;;;6.13;4.53;;;13.20;99.90;;;;;;4977489;28;20229;-68
2023/08/28 04:55:42;;;;;;;6.13;4.53;;;13.20;99.90;;;;;;4997539;28;20213;-68
2023/08/28 04:58:09;;;;;;;5.93;4.30;;;13.20;99.90;;;;;;4961712;28;20237;-68
2023/08/28 05:00:36;;;;;;;5.60;3.97;;;12.80;99.90;;;;;;4973590;28;21048;-67
2023/08/28 05:03:03;;;;;;;4.25;3.50;;;13.30;99.90;;;;;;4983772;28;20230;-67
2023/08/28 05:05:30;;;;;;;4.22;2.92;;;13.40;99.90;;;;;;4976191;28;20296;-68
2023/08/28 05:07:58;;;;;;;4.10;3.00;;;13.30;99.90;;;;;;4960583;28;20246;-68
2023/08/28 05:10:25;;;;;;;6.25;3.22;;;13.40;99.90;;;;;;4997974;28;20226;-68
2023/08/28 05:12:52;;;;;;;3.47;2.85;;;13.30;99.90;;;;;;4981988;28;20598;-68
2023/08/28 05:15:18;;;;;;;5.60;3.28;;;13.30;99.90;;;;;;4974150;28;21399;-68
2023/08/28 05:17:47;;;;;;;5.93;3.33;;;13.30;99.90;;;;;;4981476;28;20227;-68
2023/08/28 05:20:13;;;;;;;4.00;3.60;;;13.20;99.90;;;;;;4982669;28;20227;-67
2023/08/28 05:22:40;;;;;;;3.90;3.35;;;13.20;99.90;;;;;;4978961;28;20222;-67
2023/08/28 05:25:09;;;;;;;4.20;3.42;;;13.30;99.90;;;;;;4992956;28;20199;-67
2023/08/28 05:27:36;;;;;;;4.10;3.47;;;13.30;99.90;;;;;;5001380;28;20226;-68
2023/08/28 05:30:02;;;;;;;3.55;3.25;;;13.20;99.90;;;;;;4950855;28;20210;-68
2023/08/28 05:32:29;;;;;;;4.60;3.65;;;13.30;99.90;;;;;;4987537;28;20202;-67
2023/08/28 05:34:58;;;;;;;7.03;3.60;;;13.30;99.90;;;;;;4983726;28;20225;-67
2023/08/28 05:37:25;;;;;;;8.30;3.90;;;13.30;99.90;;;;;;4985745;28;20198;-67
2023/08/28 05:39:52;;;;;;;3.92;3.47;;;13.30;99.90;;;;;;4996336;28;20202;-67
2023/08/28 05:42:20;;;;;;;5.57;3.67;;;13.30;99.90;;;;;;4998568;28;20206;-67
2023/08/28 05:44:46;;;;;;;4.38;3.53;;;13.30;99.90;;;;;;4962365;28;20218;-68
2023/08/28 05:47:13;;;;;;;8.20;3.45;;;13.30;99.90;;;;;;4988770;28;20244;-67
2023/08/28 05:49:40;;;;;;;4.97;3.17;;;13.40;99.90;;;;;;4983618;28;21008;-67
2023/08/28 05:52:07;;;;;;;4.22;3.50;;;13.50;99.90;;;;;;4997857;28;20221;-68
2023/08/28 05:54:34;;;;;;;7.60;4.22;;;13.50;99.90;;;;;;4984108;28;20222;-67
2023/08/28 05:57:00;;;;;;;4.78;3.40;;;13.50;99.90;;;;;;4990144;28;20201;-68
2023/08/28 05:59:29;;;;;;;6.47;3.40;;;13.50;99.90;;;;;;4996186;28;20392;-68
2023/08/28 06:01:55;;;;;;;4.40;3.80;;;13.50;99.90;;;;;;4970937;28;20799;-68
2023/08/28 06:04:22;;;;;;;3.88;3.00;;;13.60;99.90;;;;;;4981235;28;20603;-68
2023/08/28 06:06:49;;;;;;;7.07;3.05;;;13.60;99.90;;;;;;5003396;28;20711;-68
2023/08/28 06:09:16;;;;;;;4.50;3.03;;;;;;;;;;4995758;28;20230;-68
2023/08/28 06:11:43;;;;;;;4.40;3.20;;;13.70;99.90;;;;;;4986920;28;20202;-67
2023/08/28 06:14:10;;;;;;;4.82;2.70;;;13.80;99.90;;;;;;5003428;28;20194;-69
2023/08/28 06:16:38;;;;;;;4.45;2.90;;;13.80;99.90;;;;;;4967876;28;21049;-68
2023/08/28 06:19:05;;;;;;;5.25;2.83;;;13.80;99.90;;;;;;4999892;28;20206;-68
2023/08/28 06:21:32;;;;;;;3.42;2.88;;;13.80;99.90;;;;;;4987837;28;20497;-68
2023/08/28 06:23:58;;;;;;;3.95;2.97;;;13.90;99.90;;;;;;4999975;28;20205;-68
2023/08/28 06:26:25;;;;;;;3.28;2.95;;;14.00;99.90;;;;;;4984141;28;24127;-68
2023/08/28 06:28:52;;;;;;;2.85;2.55;;;14.00;99.90;;;;;;4993481;28;20204;-68
2023/08/28 06:31:19;;;;;;;8.15;3.00;;;14.00;99.90;;;;;;4962760;28;20205;-68
2023/08/28 06:33:47;;;;;;;8.70;2.67;;;14.10;99.90;;;;;;4998566;28;20249;-67
2023/08/28 06:36:14;;;;;;;6.85;2.75;;;14.10;99.90;;;;;;4980978;28;20197;-68
2023/08/28 06:38:41;;;;;;;5.47;3.20;;;14.10;99.90;;;;;;4999199;28;20293;-67
2023/08/28 06:41:08;;;;;;;3.80;2.90;;;14.20;99.90;;;;;;4987339;28;20213;-68
2023/08/28 06:43:35;;;;;;;4.18;3.10;;;14.10;99.90;;;;;;4995248;28;20315;-68
2023/08/28 06:46:02;;;;;;;3.53;3.05;;;14.30;99.90;;;;;;4996128;28;20245;-68
2023/08/28 06:48:29;;;;;;;5.40;3.25;;;14.30;99.90;;;;;;4969997;28;20233;-68
2023/08/28 06:50:58;;;;;;;6.05;3.45;;;14.40;99.90;;;;;;4989153;28;20223;-68
2023/08/28 06:53:26;;;;;;;3.95;2.80;;;14.40;99.90;;;;;;4980679;28;20335;-68
2023/08/28 06:55:53;;;;;;;4.55;3.42;;;14.50;99.90;;;;;;4997496;28;20206;-68
2023/08/28 06:58:19;;;;;;;4.40;2.90;;;14.40;99.90;;;;;;4979548;28;20202;-68
2023/08/28 07:00:46;;;;;;;3.22;2.95;;;14.40;99.90;;;;;;4996772;28;20199;-68
2023/08/28 07:03:13;;;;;;;5.10;3.00;;;14.40;99.90;;;;;;4952698;28;20213;-68
2023/08/28 07:05:40;;;;;;;4.70;3.35;;;14.50;99.90;;;;;;4995605;28;20664;-68
2023/08/28 07:08:08;;;;;;;4.43;3.33;;;14.50;99.90;;;;;;4977644;28;20245;-68
2023/08/28 07:10:35;;;;;;;3.42;3.13;;;14.50;99.90;;;;;;4997385;28;20201;-68
2023/08/28 07:13:02;;;;;;;5.43;3.53;;;14.50;99.90;;;;;;4999336;28;20617;-68
2023/08/28 07:15:58;;;;;;;4.40;3.13;;;14.60;99.90;;;;;;4995303;28;20309;-68
2023/08/28 07:18:26;;;;;;;4.93;3.20;;;14.60;99.90;;;;;;4948144;28;21352;-67
2023/08/28 07:20:52;;;;;;;9.38;3.38;;;14.60;99.90;;;;;;4996471;28;21517;-69
2023/08/28 07:23:21;;;;;;;4.60;2.97;;;14.80;99.90;;;;;;4968737;28;20217;-69
2023/08/28 07:25:48;;;;;;;9.48;3.33;;;14.70;99.90;;;;;;5000589;28;20202;-68
2023/08/28 07:28:15;;;;;;;2.92;2.67;;;14.80;99.90;;;;;;4990989;28;20604;-68
2023/08/28 07:30:42;;;;;;;4.03;3.08;;;14.80;99.90;;;;;;4998486;28;20724;-68
2023/08/28 07:33:10;;;;;;;3.90;2.70;;;14.90;99.90;;;;;;4997210;28;20197;-68
2023/08/28 07:35:37;;;;;;;4.65;3.22;;;15.00;99.90;;;;;;4957662;28;20355;-68
2023/08/28 07:38:06;;;;;;;3.55;3.15;;;15.00;99.90;;;;;;4986622;28;20199;-67
2023/08/28 07:40:34;;;;;;;4.47;3.05;;;15.00;99.90;;;;;;4986593;28;20202;-67
2023/08/28 07:43:02;;;;;;;4.95;3.30;;;15.00;99.90;;;;;;4993680;28;20750;-68
2023/08/28 07:45:29;;;;;;;6.10;3.05;;;15.00;99.90;;;;;;5000136;28;20411;-68
2023/08/28 07:47:56;;;;;;;4.07;2.90;;;15.10;99.90;;;;;;5000148;28;20232;-67
2023/08/28 07:50:23;;;;;;;4.03;2.78;;;15.10;99.90;;;;;;4955009;28;20303;-67
2023/08/28 07:52:50;;;;;;;4.05;3.03;;;15.30;99.90;;;;;;5002685;28;20217;-67
2023/08/28 07:55:17;;;;;;;5.60;2.60;;;15.20;99.90;;;;;;4984028;28;20207;-68
2023/08/28 07:57:45;;;;;;;3.00;2.70;;;15.30;99.90;;;;;;5002538;28;20669;-68
2023/08/28 08:00:13;;;;;;;10.00;3.05;;;15.40;99.90;;;;;;5003000;28;20213;-68
2023/08/28 08:02:41;;;;;;;5.20;2.30;;;15.40;99.90;;;;;;5002223;28;20217;-68
2023/08/28 08:05:10;;;;;;;3.15;2.70;;;15.50;99.90;;;;;;4983540;28;20261;-68
2023/08/28 08:07:39;;;;;;;2.47;2.10;;;15.50;99.90;;;;;;4976595;28;20223;-68
2023/08/28 08:10:07;;;;;;;3.88;2.08;;;15.60;99.90;;;;;;4987748;28;20203;-69
2023/08/28 08:12:34;;;;;;;2.42;2.10;;;15.60;99.90;;;;;;4982791;28;20202;-69
2023/08/28 08:15:03;;;;;;;4.03;2.50;;;15.60;99.90;;;;;;5001508;28;20202;-68
2023/08/28 08:17:30;;;;;;;4.05;2.33;;;15.70;99.90;;;;;;5004614;28;20202;-69
2023/08/28 08:19:57;;;;;;;2.60;2.00;;;15.70;99.90;;;;;;5008114;28;20210;-69
2023/08/28 08:22:24;;;;;;;3.75;2.13;;;15.80;99.90;;;;;;4954268;28;20212;-68
2023/08/28 08:24:51;;;;;;;3.03;2.30;;;15.80;99.90;;;;;;5000737;28;20226;-68
2023/08/28 08:27:18;;;;;;;6.97;2.58;;;15.90;99.90;;;;;;4975764;28;20232;-69
2023/08/28 08:29:46;;;;;;;3.65;2.00;;;15.90;99.90;;;;;;4999350;28;20204;-68
2023/08/28 08:32:14;;;;;;;5.35;2.38;;;15.90;99.90;;;;;;5001881;28;20844;-69
2023/08/28 08:34:40;;;;;;;5.15;2.30;;;15.90;99.90;;;;;;4998988;28;20199;-68
2023/08/28 08:37:07;;;;;;;3.92;2.33;;;15.40;99.90;;;;;;4982749;28;20206;-68
2023/08/28 08:39:34;;;;;;;2.55;2.30;;;16.20;99.90;;;;;;4979336;28;20279;-68
2023/08/28 08:42:01;;;;;;;2.45;2.25;;;16.10;99.90;;;;;;4961744;28;20738;-67
2023/08/28 08:44:28;;;;;;;6.03;2.20;;;16.20;99.90;;;;;;4985259;28;20225;-68
2023/08/28 08:46:56;;;;;;;1.98;1.83;;;16.20;99.90;;;;;;4984558;28;20787;-68
2023/08/28 08:49:27;;;;;;;4.80;2.15;;;16.30;99.90;;;;;;5002071;28;20213;-68
2023/08/28 08:51:59;;;;;;;4.75;1.80;;;16.30;99.90;;;;;;4993626;28;20207;-68
2023/08/28 08:54:30;;;;;;;4.40;1.70;;;16.20;99.90;;;;;;4965118;28;20218;-68
2023/08/28 08:57:01;;;;;;;3.47;1.63;;;15.50;99.90;;;;;;4990601;28;20202;-68
2023/08/28 08:59:28;;;;;;;1.70;1.52;;;16.40;99.90;;;;;;4981442;28;20876;-69
2023/08/28 09:01:55;;;;;;;3.90;2.00;;;16.40;99.90;;;;;;4994174;28;20246;-68
2023/08/28 09:04:24;;;;;;;3.58;1.75;;;16.60;99.90;;;;;;5002481;28;20202;-69
2023/08/28 09:06:51;;;;;;;2.58;1.55;;;16.60;99.90;;;;;;5004392;28;20194;-69
2023/08/28 09:09:18;;;;;;;3.60;1.50;;;16.20;99.90;;;;;;4963804;28;20241;-69
2023/08/28 09:11:46;;;;;;;2.28;1.55;;;16.70;99.90;;;;;;4995360;28;20207;-69
2023/08/28 09:14:13;;;;;;;2.78;1.67;;;17.00;99.90;;;;;;4984847;28;20210;-69
2023/08/28 09:16:40;;;;;;;3.05;1.70;;;16.90;99.90;;;;;;5000833;28;20206;-68
2023/08/28 09:19:08;;;;;;;2.65;1.52;;;16.90;99.90;;;;;;5007031;28;20202;-69
2023/08/28 09:21:38;;;;;;;1.83;1.40;;;16.90;99.90;;;;;;5003248;28;20198;-68
2023/08/28 09:24:09;;;;;;;5.07;1.40;;;17.00;99.90;;;;;;4988308;28;20256;-69
2023/08/28 09:26:38;;;;;;;3.10;1.38;;;17.20;99.90;;;;;;4987446;28;20538;-68
2023/08/28 09:29:07;;;;;;;1.23;1.05;;;17.10;99.90;;;;;;4989944;28;20230;-68
2023/08/28 09:31:35;;;;;;;3.30;2.13;;;17.10;99.90;;;;;;4990678;28;20210;-68
2023/08/28 09:34:03;;;;;;;1.35;1.20;;;17.10;99.90;;;;;;5005759;28;20616;-69
2023/08/28 09:36:33;;;;;;;2.45;1.40;;;17.20;99.90;;;;;;5001757;28;20195;-68
2023/08/28 09:39:01;;;;;;;1.10;1.00;;;17.20;99.90;;;;;;5008542;28;20213;-67
2023/08/28 09:41:37;;;;;;;2.35;1.50;;;17.20;99.90;;;;;;4968197;28;20202;-68
2023/08/28 09:44:05;;;;;;;1.73;1.08;;;16.90;99.90;;;;;;4992830;28;20202;-68
2023/08/28 09:46:32;;;;;;;1.38;0.98;;;16.50;99.90;;;;;;4995991;28;20203;-68
2023/08/28 09:49:00;;;;;;;6.05;1.23;;;17.10;99.90;;;;;;5005038;28;20222;-68
2023/08/28 09:51:39;;;;;;;2.88;1.50;;;17.10;99.90;;;;;;4996755;28;20205;-68
2023/08/28 09:54:08;;;;;;;2.80;1.20;;;17.10;99.90;;;;;;5001739;28;20570;-68
2023/08/28 09:56:35;;;;;;;3.42;1.02;;;17.20;99.90;;;;;;4965238;28;20429;-67
2023/08/28 09:59:03;;;;;;;1.00;0.98;;;17.40;99.90;;;;;;4998702;28;21037;-67
2023/08/28 10:01:32;;;;;;;2.03;1.30;;;17.50;99.90;;;;;;4990431;28;20252;-68
2023/08/28 10:04:01;;;;;;;2.70;1.10;;;17.50;99.90;;;;;;5006539;28;20795;-67
2023/08/28 10:06:30;;;;;;;2.70;1.10;;;17.80;99.90;;;;;;4998938;28;20199;-67
2023/08/28 10:09:00;;;;;;;2.10;1.25;;;17.90;99.90;;;;;;5003429;28;20241;-67
2023/08/28 10:11:36;;;;;;;2.28;1.13;;;17.90;99.90;;;;;;4964780;28;20211;-68
2023/08/28 10:14:04;;;;;;;1.70;0.80;;;18.20;99.90;;;;;;4994258;28;20201;-68
2023/08/28 10:16:34;;;;;;;1.85;0.77;;;18.10;99.90;;;;;;4982883;28;21494;-68
2023/08/28 10:19:10;;;;;;;1.23;0.80;;;18.10;99.90;;;;;;5001617;28;20230;-68
2023/08/28 10:21:37;;;;;;;5.35;0.98;;;18.00;99.90;;;;;;4999655;28;20217;-68
2023/08/28 10:24:05;;;;;;;1.35;0.85;;;18.00;99.90;;;;;;5003395;28;20198;-68
2023/08/28 10:26:35;;;;;;;1.30;0.80;;;18.00;99.90;;;;;;4955988;28;20682;-68
2023/08/28 10:29:04;;;;;;;1.55;0.85;;;18.00;99.90;;;;;;5005291;28;20230;-68
2023/08/28 10:31:31;;;;;;;3.15;0.90;;;18.00;99.90;;;;;;4995742;28;20588;-68
2023/08/28 10:33:59;;;;;;;1.85;0.98;;;18.00;99.90;;;;;;4995239;28;20206;-68
2023/08/28 10:36:27;;;;;;;4.13;0.90;;;18.10;99.90;;;;;;5005031;28;20202;-68
2023/08/28 10:38:55;;;;;;;0.80;0.70;;;18.10;99.90;;;;;;5009006;28;20206;-68
2023/08/28 10:41:23;;;;;;;1.08;0.70;;;18.10;99.90;;;;;;5000406;28;20248;-68
2023/08/28 10:43:52;;;;;;;1.60;0.88;;;18.10;99.90;;;;;;4974676;28;20265;-68
2023/08/28 10:46:21;;;;;;;2.22;1.02;;;18.10;99.90;;;;;;4995496;28;20210;-68
2023/08/28 10:48:48;;;;;;;1.48;0.90;;;18.30;99.90;;;;;;4989876;28;20673;-68
2023/08/28 10:51:15;;;;;;;1.60;0.77;;;18.30;99.90;;;;;;5001171;28;20227;-68
2023/08/28 10:53:43;;;;;;;3.83;1.20;;;18.40;99.90;;;;;;4989230;28;20228;-68
2023/08/28 10:56:13;;;;;;;1.80;0.50;;;18.50;99.90;;;;;;4998830;28;20272;-68
2023/08/28 10:58:40;;;;;;;1.17;0.90;;;18.40;99.90;;;;;;4955094;28;20277;-67
2023/08/28 11:01:18;;;;;;;1.10;1.00;;;18.20;99.90;;;;;;4995329;28;20876;-67
2023/08/28 11:03:56;;;;;;;2.50;0.80;;;17.70;99.90;;;;;;4988062;28;21261;-67
2023/08/28 11:06:37;;;;;;;0.88;0.88;;;17.00;99.90;;;;;;4995544;28;20798;-68
2023/08/28 11:09:39;;;;;;;2.35;1.00;;;17.00;99.90;;;;;;5001909;28;20285;-67
2023/08/28 11:12:25;;;;;;;1.48;1.08;;;16.80;99.90;;;;;;5002820;28;20241;-68
2023/08/28 11:15:03;;;;;;;2.08;0.75;;;16.60;99.90;;;;;;4957240;28;20233;-68
2023/08/28 11:17:33;;;;;;;4.60;1.40;;;16.60;99.90;;;;;;4988318;28;20233;-67
2023/08/28 11:20:11;;;;;;;2.45;0.80;;;16.50;99.90;;;;;;4986561;28;20672;-67
2023/08/28 11:22:39;;;;;;;2.65;1.08;;;16.40;99.90;;;;;;4996252;28;20882;-68
2023/08/28 11:25:07;;;;;;;1.00;0.80;;;16.40;99.90;;;;;;5004056;28;20202;-68
2023/08/28 11:27:35;;;;;;;0.85;0.82;;;16.40;99.90;;;;;;5004611;28;20210;-67
2023/08/28 11:30:06;;;;;;;1.02;0.82;;;16.30;99.90;;;;;;4965779;28;23170;-67
2023/08/28 11:32:35;;;;;;;1.48;1.10;;;16.30;99.90;;;;;;5008009;28;20217;-67
2023/08/28 11:35:04;;;;;;;2.20;1.23;;;16.20;99.90;;;;;;4997103;28;20206;-67
2023/08/28 11:37:32;;;;;;;10.73;2.40;;;16.20;99.90;;;;;;4995568;28;20226;-67
2023/08/28 11:40:00;;;;;;;6.03;2.30;;;16.40;99.90;;;;;;4982125;28;20244;-68
2023/08/28 11:42:27;;;;;;;6.68;2.05;;;16.30;99.90;;;;;;4998422;28;20230;-67
2023/08/28 11:44:53;;;;;;;1.38;1.00;;;16.40;99.90;;;;;;4939218;28;21508;-68
2023/08/28 11:47:27;;;;;;;0.95;0.85;;;16.50;99.90;;;;;;4999683;28;20214;-67
2023/08/28 11:49:56;;;;;;;2.20;1.25;;;16.50;99.90;;;;;;5001244;28;21063;-68
2023/08/28 11:52:23;;;;;;;0.70;0.70;;;16.80;99.90;;;;;;4976304;28;20206;-68
2023/08/28 11:54:51;;;;;;;2.05;0.65;;;16.80;99.90;;;;;;5003529;28;20213;-68
2023/08/28 11:57:22;;;;;;;0.85;0.82;;;17.10;99.90;;;;;;4999895;28;20218;-67
2023/08/28 11:59:49;;;;;;;4.85;4.25;;;17.00;99.90;;;;;;4954152;28;20257;-67
2023/08/28 12:02:16;;;;;;;1.30;1.15;;;17.30;99.90;;;;;;4966014;28;20222;-67
2023/08/28 12:04:43;;;;;;;1.50;0.68;;;17.30;99.90;;;;;;4992512;28;20198;-68
2023/08/28 12:07:18;;;;;;;3.00;0.80;;;17.50;99.90;;;;;;4974864;28;20233;-67
2023/08/28 12:09:47;;;;;;;2.20;0.60;;;17.50;99.90;;;;;;4997588;28;20233;-67
2023/08/28 12:12:15;;;;;;;1.85;0.80;;;17.60;99.90;;;;;;4986564;28;20889;-68
2023/08/28 12:14:45;;;;;;;1.80;0.82;;;17.90;99.90;;;;;;4987862;28;20311;-68
2023/08/28 12:17:16;;;;;;;0.60;0.60;;;18.00;99.90;;;;;;4939968;28;20226;-67
2023/08/28 12:19:44;;;;;;;3.58;1.38;;;18.00;99.90;;;;;;4960159;28;20233;-68
2023/08/28 12:22:12;;;;;;;3.00;1.60;;;18.10;99.90;;;;;;4987477;28;20210;-67
2023/08/28 12:24:45;;;;;;;3.67;1.08;;;18.10;99.90;;;;;;4981030;28;20207;-68
2023/08/28 12:27:13;;;;;;;1.13;0.60;;;18.20;99.90;;;;;;4991347;28;20225;-68
2023/08/28 12:29:41;;;;;;;0.98;0.90;;;18.30;99.90;;;;;;5003112;28;20593;-67
2023/08/28 12:32:09;;;;;;;1.67;0.55;;;18.30;99.90;;;;;;4950781;28;20315;-67
2023/08/28 12:34:37;;;;;;;1.02;0.82;;;18.30;99.90;;;;;;4984092;28;20233;-67
2023/08/28 12:37:06;;;;;;;1.42;0.82;;;18.40;99.90;;;;;;4990787;28;20558;-66
2023/08/28 12:39:33;;;;;;;2.78;1.10;;;18.40;99.90;;;;;;4986153;28;20230;-67
2023/08/28 12:42:03;;;;;;;3.85;0.90;;;18.50;99.90;;;;;;4988870;28;20718;-67
2023/08/28 12:44:31;;;;;;;1.98;0.60;;;19.70;99.90;;;;;;4969170;28;20211;-67
2023/08/28 12:46:58;;;;;;;2.10;0.85;;;18.60;99.90;;;;;;4953937;28;23926;-66
2023/08/28 12:49:26;;;;;;;0.43;0.43;;;18.70;99.90;;;;;;4972484;28;20332;-67
2023/08/28 12:51:54;;;;;;;2.60;0.93;;;18.70;99.90;;;;;;4977613;28;22436;-66
2023/08/28 12:54:21;;;;;;;1.63;0.80;;;18.60;99.90;;;;;;4984759;28;20237;-67